Accueil
METAR-TAF:

METAR-TAF

Aéroports :

Mykolaïv, Ukraine

latitude: 47-03-29N, longitude: 031-55-15E, altitude: 56 m

Observation

Le bulletin a été fait il y a 9 heures et 18 minutes, à 15:00 UTC
Vent 8 kt de est/sud-est
Température 5°C
Humidité 100%
Pression 1017 hPa
Visibilité: 0100 m
brouillard

METAR: UKON 101500Z 12004MPS 0150 0100NE FG VV001 05/05 Q1017 R04/190070 NOSIG

Heure: 02:18 (00:18 UTC)

Prévision

Le bulletin a été fait il y a 10 heures et 16 minutes, à 14:02 UTC
Prévision valable du 10 à 15 UTC au 10 à 24 UTC
Vent 6 kt de est/sud-est
Visibilité: 0200 m
à une hauteur de 100 ft
brouillard

TAF: UKON 101402Z 1015/1024 12003MPS 0200 FG VV001 TX05/1015Z TN02/1024Z

Observations et prévisions météorologiques de plus de 4000 aéroports (messages METAR et TAF).

Les stations disponibles sont représentées par des disques jaunes et rouges sur la carte.

Passer la souris dessus pour voir le nom de la station.

Cliquer dessus pour voir les observations et prévisions météorologiques.

Pour changer de carte: cliquez sur les boutons verts avec une croix noire pour zoomer, sur le bouton vert avec un tiret pour effectuer un zoom arrière, ou sur les flèches vertes pour les cartes adjacentes.


METAR-TAF: